Time;durP1;ratioP1;P1;durP2;ratioP2;P2;SDS_P1;SDS_P2;PMS_P1;PMS_P2;Temp;Humidity;BMP_temperature;BMP_pressure;BME280_temperature;BME280_humidity;BME280_pressure;Samples;Min_cycle;Max_cycle;Signal;HPM_P1;HPM_P2
2022/03/27 00:00:31;;;;;;;;;;;;;;;6.28;49.86;100652.72;5014541;28;20373;-83
2022/03/27 00:02:56;;;;;;;;;;;;;;;6.11;49.84;100662.03;5009629;28;19921;-84
2022/03/27 00:05:22;;;;;;;;;;;;;;;5.92;50.44;100660.78;5009513;28;19925;-81
2022/03/27 00:07:47;;;;;;;;;;;;;;;5.89;50.12;100665.94;5009581;28;19941;-81
2022/03/27 00:10:12;;;;;;;;;;;;;;;5.85;50.31;100664.97;5007101;28;20430;-83
2022/03/27 00:12:38;;;;;;;;;;;;;;;5.88;50.49;100659.81;5010326;28;19921;-82
2022/03/27 00:15:04;;;;;;;;;;;;;;;5.84;50.41;100655.38;5010333;28;20387;-81
2022/03/27 00:17:32;;;;;;;;;;;;;;;5.43;51.66;100657.16;5009983;28;19917;-83
2022/03/27 00:19:58;;;;;;;;;;;;;;;5.59;52.03;100656.59;5007523;28;19970;-86
2022/03/27 00:22:24;;;;;;;;;;;;;;;5.55;51.72;100653.06;5044791;28;19925;-84
2022/03/27 00:24:49;;;;;;;;;;;;;;;5.68;51.42;100650.69;5012272;28;19922;-82
2022/03/27 00:27:14;;;;;;;;;;;;;;;5.61;51.56;100654.00;5009938;28;20319;-83
2022/03/27 00:29:40;;;;;;;;;;;;;;;5.46;52.03;100650.25;5010345;28;19917;-82
2022/03/27 00:32:05;;;;;;;;;;;;;;;5.46;52.14;100646.75;5011458;28;19932;-82
2022/03/27 00:34:30;;;;;;;;;;;;;;;5.48;52.11;100634.56;5009012;28;20040;-83
2022/03/27 00:36:56;;;;;;;;;;;;;;;5.22;53.11;100650.63;5008967;28;19922;-83
2022/03/27 00:39:21;;;;;;;;;;;;;;;5.13;53.20;100643.44;5009085;28;19921;-82
2022/03/27 00:41:47;;;;;;;;;;;;;;;5.04;53.33;100648.47;5008640;28;20318;-83
2022/03/27 00:44:13;;;;;;;;;;;;;;;4.95;53.65;100645.63;5008244;28;19926;-83
2022/03/27 00:46:38;;;;;;;;;;;;;;;5.03;53.25;100638.84;5008579;28;19928;-84
2022/03/27 00:49:03;;;;;;;;;;;;;;;5.20;53.00;100644.44;5008522;28;19925;-85
2022/03/27 00:51:29;;;;;;;;;;;;;;;5.15;52.97;100639.13;5007924;28;19925;-83
2022/03/27 00:53:54;;;;;;;;;;;;;;;5.06;52.91;100646.75;5007970;28;19964;-83
2022/03/27 00:56:19;;;;;;;;;;;;;;;5.08;52.95;100646.78;5009550;28;19918;-83
2022/03/27 00:58:45;;;;;;;;;;;;;;;5.18;52.63;100646.16;5009170;28;20338;-82
2022/03/27 01:01:13;;;;;;;;;;;;;;;5.17;52.81;100641.75;5008655;28;19928;-84
2022/03/27 01:03:38;;;;;;;;;;;;;;;5.06;53.26;100640.66;5008910;28;19925;-84
2022/03/27 01:06:03;;;;;;;;;;;;;;;5.04;53.11;100644.97;5008692;28;20414;-84
2022/03/27 01:11:18;;;;;;;;;;;;;;;4.87;54.09;100642.84;5008161;28;19932;-84
2022/03/27 01:13:45;;;;;;;;;;;;;;;4.77;53.80;100639.13;5007853;28;19932;-83
2022/03/27 01:16:15;;;;;;;;;;;;;;;4.78;53.96;100629.56;5008735;28;20060;-83
2022/03/27 01:18:41;;;;;;;;;;;;;;;4.87;53.88;100626.28;5008687;28;20384;-82
2022/03/27 01:21:07;;;;;;;;;;;;;;;4.77;54.28;100630.38;4994388;28;19926;-83
2022/03/27 01:23:33;;;;;;;;;;;;;;;4.74;54.80;100626.00;5000271;28;19921;-83
2022/03/27 01:25:59;;;;;;;;;;;;;;;4.84;54.11;100617.50;5005794;28;19921;-81
2022/03/27 01:28:25;;;;;;;;;;;;;;;4.85;54.18;100623.63;5008772;28;19928;-84
2022/03/27 01:30:50;;;;;;;;;;;;;;;4.71;54.16;100623.31;5007295;28;19921;-84
2022/03/27 01:33:15;;;;;;;;;;;;;;;4.61;53.99;100623.94;5007567;28;19983;-84
2022/03/27 01:35:41;;;;;;;;;;;;;;;3.92;55.56;100630.88;5007630;28;19925;-84
2022/03/27 01:38:06;;;;;;;;;;;;;;;4.00;56.06;100632.00;5008087;28;19946;-84
2022/03/27 01:40:31;;;;;;;;;;;;;;;4.08;57.04;100627.84;5022273;28;19932;-83
2022/03/27 01:42:58;;;;;;;;;;;;;;;3.75;57.17;100605.22;5008287;28;19930;-85
2022/03/27 01:45:23;;;;;;;;;;;;;;;3.98;56.95;100625.81;4992793;28;19929;-83
2022/03/27 01:47:49;;;;;;;;;;;;;;;4.10;57.28;100628.75;5007226;28;19925;-84
2022/03/27 01:50:14;;;;;;;;;;;;;;;4.21;56.92;100621.19;5007480;28;20718;-84
2022/03/27 01:52:40;;;;;;;;;;;;;;;4.29;56.81;100621.38;5007559;28;19925;-84
2022/03/27 01:55:06;;;;;;;;;;;;;;;4.38;57.40;100612.91;5007613;28;20394;-83
2022/03/27 01:57:31;;;;;;;;;;;;;;;4.40;57.75;100616.44;5007881;28;19932;-83
2022/03/27 01:59:57;;;;;;;;;;;;;;;4.34;58.12;100614.56;5007165;28;20785;-83
2022/03/27 02:02:25;;;;;;;;;;;;;;;4.46;58.24;100614.88;5019621;28;20040;-83
2022/03/27 02:04:51;;;;;;;;;;;;;;;4.44;58.26;100618.28;4993883;28;19925;-83
2022/03/27 02:07:17;;;;;;;;;;;;;;;4.35;58.67;100607.63;5007655;28;19927;-83
2022/03/27 02:09:43;;;;;;;;;;;;;;;4.41;58.15;100610.38;5022748;28;19921;-85
2022/03/27 02:12:08;;;;;;;;;;;;;;;4.32;58.72;100608.41;5007621;28;20071;-84
2022/03/27 02:14:34;;;;;;;;;;;;;;;4.35;58.66;100607.63;5007394;28;19926;-83
2022/03/27 02:16:59;;;;;;;;;;;;;;;4.41;58.41;100599.94;5029329;28;20388;-83
2022/03/27 02:19:24;;;;;;;;;;;;;;;4.42;58.18;100602.56;4988420;28;19922;-84
2022/03/27 02:21:50;;;;;;;;;;;;;;;3.96;60.12;100609.25;4988619;28;19921;-84
2022/03/27 02:24:16;;;;;;;;;;;;;;;4.22;59.32;100603.81;4987924;28;19921;-83
2022/03/27 02:26:45;;;;;;;;;;;;;;;4.34;58.83;100592.78;4993450;28;19931;-83
2022/03/27 02:29:16;;;;;;;;;;;;;;;4.50;57.93;100599.28;5007354;28;20316;-83
2022/03/27 02:31:42;;;;;;;;;;;;;;;4.15;59.31;100599.28;5007781;28;19918;-83
2022/03/27 02:34:07;;;;;;;;;;;;;;;4.58;57.68;100597.72;4988115;28;19932;-83
2022/03/27 02:36:33;;;;;;;;;;;;;;;4.69;57.13;100601.47;4991123;28;19921;-83
2022/03/27 02:38:58;;;;;;;;;;;;;;;4.61;57.55;100603.03;5007328;28;20414;-83
2022/03/27 02:41:23;;;;;;;;;;;;;;;4.73;56.49;100603.31;5005055;28;20722;-82
2022/03/27 02:43:49;;;;;;;;;;;;;;;4.79;56.31;100603.44;4992888;28;20005;-82
2022/03/27 02:46:14;;;;;;;;;;;;;;;4.98;55.78;100599.50;5006833;28;19922;-85
2022/03/27 02:48:39;;;;;;;;;;;;;;;5.05;55.44;100604.88;5006498;28;19929;-83
2022/03/27 02:51:05;;;;;;;;;;;;;;;5.00;55.58;100608.28;5007017;28;19922;-82
2022/03/27 02:53:30;;;;;;;;;;;;;;;5.05;55.39;100608.41;5006281;28;19931;-82
2022/03/27 02:55:56;;;;;;;;;;;;;;;4.97;55.38;100607.31;5006653;28;19980;-83
2022/03/27 02:58:21;;;;;;;;;;;;;;;5.11;55.12;100610.25;5005826;28;19926;-84
2022/03/27 03:00:46;;;;;;;;;;;;;;;5.14;54.85;100618.16;5006504;28;19973;-83
2022/03/27 03:03:13;;;;;;;;;;;;;;;5.27;53.78;100625.44;5005894;28;19925;-84
2022/03/27 03:05:39;;;;;;;;;;;;;;;5.31;54.35;100631.59;5006301;28;20387;-83
2022/03/27 03:08:06;;;;;;;;;;;;;;;5.36;53.99;100632.56;5018585;28;19933;-85
2022/03/27 03:10:32;;;;;;;;;;;;;;;5.26;54.20;100641.09;4985838;28;20389;-83
2022/03/27 03:12:58;;;;;;;;;;;;;;;5.16;54.53;100638.28;4999521;28;19932;-82
2022/03/27 03:15:23;;;;;;;;;;;;;;;5.08;55.04;100629.38;5006764;28;20327;-83
2022/03/27 03:17:49;;;;;;;;;;;;;;;5.07;55.05;100629.34;5006594;28;20470;-83
2022/03/27 03:20:15;;;;;;;;;;;;;;;5.02;54.87;100631.88;5006036;28;19976;-83
2022/03/27 03:22:40;;;;;;;;;;;;;;;5.04;54.89;100630.16;5004808;28;20610;-81
2022/03/27 03:25:06;;;;;;;;;;;;;;;4.93;55.01;100632.53;5005868;28;19925;-83
2022/03/27 03:27:32;;;;;;;;;;;;;;;4.95;54.44;100640.41;5006075;28;19948;-82
2022/03/27 03:29:57;;;;;;;;;;;;;;;4.87;54.64;100637.63;5006668;28;20439;-82
2022/03/27 03:32:23;;;;;;;;;;;;;;;4.71;54.34;100641.59;5006775;28;19924;-83
2022/03/27 03:34:49;;;;;;;;;;;;;;;4.51;54.65;100648.06;5005881;28;20388;-82
2022/03/27 03:37:14;;;;;;;;;;;;;;;4.36;55.33;100644.22;5006607;28;19922;-82
2022/03/27 03:39:39;;;;;;;;;;;;;;;4.46;55.35;100635.78;5005183;28;20065;-82
2022/03/27 03:42:06;;;;;;;;;;;;;;;5.20;52.71;100632.28;5006659;28;20015;-82
2022/03/27 03:44:31;;;;;;;;;;;;;;;5.95;51.23;100626.78;5005758;28;19929;-83
2022/03/27 03:46:56;;;;;;;;;;;;;;;6.49;49.62;100629.47;5005647;28;19933;-83
2022/03/27 03:49:23;;;;;;;;;;;;;;;7.01;48.09;100626.78;5006079;28;19928;-82
2022/03/27 03:51:49;;;;;;;;;;;;;;;7.50;46.26;100635.31;5006249;28;19925;-83
2022/03/27 03:54:14;;;;;;;;;;;;;;;7.80;45.67;100629.56;5006853;28;19928;-83
2022/03/27 03:56:40;;;;;;;;;;;;;;;8.08;44.33;100640.38;5021571;28;19942;-85
2022/03/27 03:59:05;;;;;;;;;;;;;;;8.23;43.80;100640.53;5006083;28;19925;-84
2022/03/27 04:01:30;;;;;;;;;;;;;;;8.18;43.77;100642.22;5004978;28;19926;-83
2022/03/27 04:03:56;;;;;;;;;;;;;;;8.34;43.30;100645.88;5037560;28;19932;-83
2022/03/27 04:06:22;;;;;;;;;;;;;;;8.36;43.58;100644.16;5004741;28;19976;-84
2022/03/27 04:08:48;;;;;;;;;;;;;;;8.36;42.86;100646.78;5004545;28;20846;-83
2022/03/27 04:11:16;;;;;;;;;;;;;;;8.40;43.13;100645.94;5005641;28;19921;-82
2022/03/27 04:13:44;;;;;;;;;;;;;;;8.58;41.89;100639.09;5005274;28;19929;-83
2022/03/27 04:16:10;;;;;;;;;;;;;;;8.80;41.32;100641.91;5005603;28;19921;-83
2022/03/27 04:18:36;;;;;;;;;;;;;;;9.08;40.98;100641.22;5017324;28;20008;-83
2022/03/27 04:21:01;;;;;;;;;;;;;;;9.31;40.26;100637.81;4992869;28;20522;-82
2022/03/27 04:23:26;;;;;;;;;;;;;;;9.42;40.44;100641.41;5007446;28;19921;-83
2022/03/27 04:25:52;;;;;;;;;;;;;;;9.59;40.66;100653.75;5009228;28;19932;-83
2022/03/27 04:28:17;;;;;;;;;;;;;;;9.73;39.33;100657.34;5008634;28;19925;-83
2022/03/27 04:30:42;;;;;;;;;;;;;;;9.97;39.87;100655.66;5020087;28;19932;-83
2022/03/27 04:33:08;;;;;;;;;;;;;;;10.08;39.34;100650.41;4989446;28;19930;-82
2022/03/27 04:35:34;;;;;;;;;;;;;;;10.06;39.45;100649.56;4997745;28;19926;-82
2022/03/27 04:38:00;;;;;;;;;;;;;;;10.11;39.09;100655.69;5008390;28;19925;-83
2022/03/27 04:40:25;;;;;;;;;;;;;;;10.15;38.91;100660.13;5007209;28;19929;-82
2022/03/27 04:42:51;;;;;;;;;;;;;;;10.09;39.51;100662.75;5036965;28;20537;-82
2022/03/27 04:45:17;;;;;;;;;;;;;;;9.98;39.02;100658.31;5008744;28;19921;-81
2022/03/27 04:47:42;;;;;;;;;;;;;;;10.10;39.18;100665.38;5009568;28;19940;-82
2022/03/27 04:50:08;;;;;;;;;;;;;;;10.14;39.14;100666.25;5009445;28;20594;-82
2022/03/27 04:52:34;;;;;;;;;;;;;;;10.20;39.76;100668.91;5009414;28;19932;-83
2022/03/27 04:54:59;;;;;;;;;;;;;;;10.34;39.58;100669.84;5010177;28;20448;-82
2022/03/27 04:57:25;;;;;;;;;;;;;;;10.39;39.32;100672.47;5008702;28;19917;-82
2022/03/27 04:59:50;;;;;;;;;;;;;;;10.46;38.84;100668.97;5009270;28;19925;-83
2022/03/27 05:02:16;;;;;;;;;;;;;;;10.31;39.49;100674.19;5009274;28;19925;-80
2022/03/27 05:04:41;;;;;;;;;;;;;;;10.39;39.41;100685.66;5009828;28;19952;-83
2022/03/27 05:07:07;;;;;;;;;;;;;;;10.45;38.37;100690.94;5007840;28;19925;-83
2022/03/27 05:09:33;;;;;;;;;;;;;;;10.48;39.42;100690.94;5008856;28;19956;-83
2022/03/27 05:11:58;;;;;;;;;;;;;;;10.75;38.69;100684.81;5009190;28;19928;-83
2022/03/27 05:14:23;;;;;;;;;;;;;;;10.43;40.15;100686.56;5009499;28;19921;-82
2022/03/27 05:16:48;;;;;;;;;;;;;;;10.44;40.24;100691.84;5008221;28;19925;-84
2022/03/27 05:19:14;;;;;;;;;;;;;;;10.16;40.25;100683.84;5008489;28;20363;-84
2022/03/27 05:21:39;;;;;;;;;;;;;;;10.43;40.09;100679.53;5009012;28;19952;-84
2022/03/27 05:24:06;;;;;;;;;;;;;;;10.76;39.80;100683.06;5008652;28;20387;-82
2022/03/27 05:26:31;;;;;;;;;;;;;;;11.00;38.98;100690.09;5008221;28;19960;-80
2022/03/27 05:28:57;;;;;;;;;;;;;;;11.29;38.53;100692.69;5009227;28;19921;-82
2022/03/27 05:31:22;;;;;;;;;;;;;;;11.55;37.95;100681.16;5008807;28;19921;-82
2022/03/27 05:33:47;;;;;;;;;;;;;;;11.65;38.22;100687.31;5014203;28;19921;-81
2022/03/27 05:36:13;;;;;;;;;;;;;;;11.76;38.02;100681.97;5009530;28;19924;-84
2022/03/27 05:38:39;;;;;;;;;;;;;;;11.99;37.70;100687.19;5008903;28;19924;-83
2022/03/27 05:41:05;;;;;;;;;;;;;;;12.40;37.43;100688.69;5009450;28;19967;-83
2022/03/27 05:43:30;;;;;;;;;;;;;;;12.57;37.24;100678.00;5040886;28;19925;-83
2022/03/27 05:45:56;;;;;;;;;;;;;;;12.53;36.70;100689.53;5008996;28;19929;-85
2022/03/27 05:48:21;;;;;;;;;;;;;;;12.67;36.80;100686.78;5036680;28;20386;-85
2022/03/27 05:50:46;;;;;;;;;;;;;;;12.83;36.51;100685.72;5008773;28;20304;-85
2022/03/27 05:53:12;;;;;;;;;;;;;;;13.00;35.69;100684.72;5008850;28;19918;-84
2022/03/27 05:55:37;;;;;;;;;;;;;;;13.10;35.15;100698.75;5008866;28;19917;-84
2022/03/27 05:58:03;;;;;;;;;;;;;;;13.19;35.04;100694.25;5006710;28;20016;-81
2022/03/27 06:00:28;;;;;;;;;;;;;;;13.35;35.04;100695.00;5007311;28;19972;-84
2022/03/27 06:02:54;;;;;;;;;;;;;;;13.60;35.25;100692.06;5007226;28;19937;-82
2022/03/27 06:05:22;;;;;;;;;;;;;;;13.79;34.65;100692.72;5006622;28;19960;-83
2022/03/27 06:07:50;;;;;;;;;;;;;;;14.00;34.66;100691.59;5051622;28;19963;-84
2022/03/27 06:10:18;;;;;;;;;;;;;;;14.26;33.99;100691.22;5037883;28;20011;-82
2022/03/27 06:12:44;;;;;;;;;;;;;;;14.43;33.43;100692.75;5017609;28;19999;-84
2022/03/27 06:15:10;;;;;;;;;;;;;;;14.47;33.28;100695.34;5021420;28;20392;-82
2022/03/27 06:17:45;;;;;;;;;;;;;;;14.86;32.99;100694.78;5024654;28;20016;-83
2022/03/27 06:20:12;;;;;;;;;;;;;;;14.79;33.28;100691.31;5021841;28;19925;-83
2022/03/27 06:22:38;;;;;;;;;;;;;;;14.89;33.31;100701.78;5022557;28;19921;-82
2022/03/27 06:25:03;;;;;;;;;;;;;;;15.09;33.29;100697.03;5020898;28;20852;-85
2022/03/27 06:27:29;;;;;;;;;;;;;;;15.15;32.49;100699.59;5025760;28;19933;-84
2022/03/27 06:29:54;;;;;;;;;;;;;;;15.47;32.84;100698.09;5014840;28;19980;-84
2022/03/27 06:32:19;;;;;;;;;;;;;;;15.44;31.98;100698.16;5006577;28;19925;-84
2022/03/27 06:34:45;;;;;;;;;;;;;;;15.72;32.89;100705.59;5008271;28;19924;-84
2022/03/27 06:37:10;;;;;;;;;;;;;;;15.95;32.18;100702.47;5007047;28;19936;-83
2022/03/27 06:39:35;;;;;;;;;;;;;;;15.95;31.93;100698.97;5006895;28;19932;-85
2022/03/27 06:42:01;;;;;;;;;;;;;;;16.15;31.36;100699.38;5026531;28;20645;-84
2022/03/27 06:44:26;;;;;;;;;;;;;;;16.39;31.38;100702.41;5006659;28;19956;-84
2022/03/27 06:46:51;;;;;;;;;;;;;;;16.53;31.28;100707.41;5005433;28;19926;-85
2022/03/27 06:49:17;;;;;;;;;;;;;;;16.78;30.75;100697.06;5007938;28;19925;-86
2022/03/27 06:51:43;;;;;;;;;;;;;;;16.78;30.54;100702.38;5015894;28;19944;-86
2022/03/27 06:54:08;;;;;;;;;;;;;;;16.73;31.45;100715.81;5019020;28;20420;-85
2022/03/27 06:56:33;;;;;;;;;;;;;;;17.28;29.68;100696.69;5007322;28;19922;-85
2022/03/27 06:58:59;;;;;;;;;;;;;;;17.37;29.38;100699.09;5021041;28;19926;-86
2022/03/27 07:04:28;;;;;;;;;;;;;;;17.32;28.77;100707.22;5024198;28;19968;-84
2022/03/27 07:06:53;;;;;;;;;;;;;;;17.39;28.55;100709.72;5024376;28;19964;-84
2022/03/27 07:09:19;;;;;;;;;;;;;;;17.31;28.47;100702.81;5017079;28;20016;-84
2022/03/27 07:11:44;;;;;;;;;;;;;;;17.57;28.05;100700.38;5007243;28;19928;-84
2022/03/27 07:14:12;;;;;;;;;;;;;;;17.58;27.62;100705.66;5007180;28;20392;-83
2022/03/27 07:16:38;;;;;;;;;;;;;;;17.69;27.98;100698.22;5007816;28;19924;-83
2022/03/27 07:19:03;;;;;;;;;;;;;;;17.65;27.49;100709.00;5006296;28;19918;-85
2022/03/27 07:21:28;;;;;;;;;;;;;;;17.76;27.60;100709.56;5007045;28;19968;-85
2022/03/27 07:23:54;;;;;;;;;;;;;;;18.05;26.97;100711.44;5005991;28;19980;-84
2022/03/27 07:26:19;;;;;;;;;;;;;;;18.07;27.09;100709.59;5007001;28;20676;-84
2022/03/27 07:28:44;;;;;;;;;;;;;;;18.17;26.72;100707.53;5007272;28;19957;-84
2022/03/27 07:31:11;;;;;;;;;;;;;;;18.13;26.17;100697.84;5007142;28;19925;-84
2022/03/27 07:33:37;;;;;;;;;;;;;;;18.17;25.63;100696.84;5007090;28;19921;-84
2022/03/27 07:36:03;;;;;;;;;;;;;;;18.54;26.90;100703.69;5006732;28;19979;-84
2022/03/27 07:38:28;;;;;;;;;;;;;;;18.53;24.98;100698.41;5006189;28;19925;-85
2022/03/27 07:40:54;;;;;;;;;;;;;;;18.77;25.54;100699.41;5006736;28;19929;-85
2022/03/27 07:43:19;;;;;;;;;;;;;;;18.54;24.94;100702.84;5007109;28;19987;-84
2022/03/27 07:45:45;;;;;;;;;;;;;;;18.31;25.88;100687.53;5006399;28;20013;-85
2022/03/27 07:48:10;;;;;;;;;;;;;;;18.58;24.94;100709.81;5006502;28;19925;-85
2022/03/27 07:50:35;;;;;;;;;;;;;;;18.90;24.18;100689.22;5006813;28;19917;-84
2022/03/27 07:53:01;;;;;;;;;;;;;;;18.77;24.17;100688.72;5006066;28;19921;-85
2022/03/27 07:55:27;;;;;;;;;;;;;;;18.86;24.35;100684.88;5007334;28;20384;-85
2022/03/27 07:57:52;;;;;;;;;;;;;;;19.09;23.95;100690.34;5041285;28;20400;-86
2022/03/27 08:00:17;;;;;;;;;;;;;;;19.20;24.90;100681.94;5010931;28;19960;-86
2022/03/27 08:02:44;;;;;;;;;;;;;;;19.18;24.68;100680.25;5011162;28;19921;-84
2022/03/27 08:05:10;;;;;;;;;;;;;;;19.37;24.25;100685.81;5011082;28;20336;-82
2022/03/27 08:07:35;;;;;;;;;;;;;;;19.20;24.13;100684.63;5010783;28;19921;-85
2022/03/27 08:10:01;;;;;;;;;;;;;;;19.31;23.86;100687.78;5010537;28;19929;-82
2022/03/27 08:12:27;;;;;;;;;;;;;;;19.08;23.55;100679.72;5010749;28;19968;-86
2022/03/27 08:14:52;;;;;;;;;;;;;;;19.21;22.75;100678.31;5042692;28;20012;-84
2022/03/27 08:17:19;;;;;;;;;;;;;;;19.18;24.09;100683.78;5010842;28;19964;-83
2022/03/27 08:19:44;;;;;;;;;;;;;;;19.32;23.11;100673.50;5010268;28;19955;-84
2022/03/27 08:22:10;;;;;;;;;;;;;;;19.09;22.88;100678.75;5010528;28;19918;-84
2022/03/27 08:24:36;;;;;;;;;;;;;;;19.05;22.68;100672.66;5010399;28;20013;-84
2022/03/27 08:27:04;;;;;;;;;;;;;;;19.33;23.18;100671.69;5010357;28;19936;-84
2022/03/27 08:29:31;;;;;;;;;;;;;;;19.38;22.52;100667.03;5010385;28;19917;-84
2022/03/27 08:31:59;;;;;;;;;;;;;;;19.64;23.18;100662.53;5010271;28;19944;-86
2022/03/27 08:34:25;;;;;;;;;;;;;;;19.42;21.49;100665.13;5024746;28;20824;-84
2022/03/27 08:36:51;;;;;;;;;;;;;;;19.40;21.83;100664.28;5010384;28;19926;-86
2022/03/27 08:39:16;;;;;;;;;;;;;;;19.30;22.06;100658.41;5023935;28;19917;-86
2022/03/27 08:41:46;;;;;;;;;;;;;;;19.29;22.33;100652.19;5010546;28;19917;-86
2022/03/27 08:44:12;;;;;;;;;;;;;;;19.47;23.44;100645.28;5009401;28;20430;-85
2022/03/27 08:46:37;;;;;;;;;;;;;;;19.42;21.50;100651.75;5009301;28;19925;-85
2022/03/27 08:49:08;;;;;;;;;;;;;;;19.46;21.70;100648.91;5041944;28;20355;-85
2022/03/27 08:51:39;;;;;;;;;;;;;;;19.91;21.61;100641.91;5009890;28;19979;-84
2022/03/27 08:54:05;;;;;;;;;;;;;;;20.01;21.80;100645.97;5009654;28;19917;-85
2022/03/27 08:56:32;;;;;;;;;;;;;;;19.82;22.40;100640.44;5009699;28;20013;-85
2022/03/27 08:58:59;;;;;;;;;;;;;;;19.69;21.40;100633.78;5010167;28;19921;-86
2022/03/27 09:01:25;;;;;;;;;;;;;;;19.83;21.77;100630.59;5010220;28;20004;-87
2022/03/27 09:03:51;;;;;;;;;;;;;;;19.87;22.53;100640.28;5009968;28;20004;-85
2022/03/27 09:06:16;;;;;;;;;;;;;;;19.55;21.19;100636.97;5009553;28;20052;-87
2022/03/27 09:08:42;;;;;;;;;;;;;;;19.72;21.28;100631.00;5042080;28;20000;-89
2022/03/27 09:11:13;;;;;;;;;;;;;;;19.58;21.29;100642.22;5009576;28;19921;-90
2022/03/27 09:13:39;;;;;;;;;;;;;;;19.71;21.67;100639.06;5009570;28;19921;-88
2022/03/27 09:16:07;;;;;;;;;;;;;;;20.10;22.24;100623.31;5009427;28;19928;-87
2022/03/27 09:18:48;;;;;;;;;;;;;;;20.41;21.89;100631.94;5009752;28;19944;-87
2022/03/27 09:21:14;;;;;;;;;;;;;;;20.50;21.76;100632.41;5009846;28;20670;-87
2022/03/27 09:23:39;;;;;;;;;;;;;;;20.10;21.51;100622.44;5024377;28;20289;-88
2022/03/27 09:26:06;;;;;;;;;;;;;;;19.96;20.98;100628.34;5009415;28;19925;-89
2022/03/27 09:28:33;;;;;;;;;;;;;;;20.03;21.16;100629.84;5008690;28;19932;-90
2022/03/27 09:31:00;;;;;;;;;;;;;;;19.99;20.39;100625.56;5009317;28;20366;-88
2022/03/27 09:33:32;;;;;;;;;;;;;;;20.14;20.98;100606.19;5009418;28;20376;-86
2022/03/27 09:36:05;;;;;;;;;;;;;;;20.32;20.69;100614.41;5009834;28;19921;-88
2022/03/27 09:38:30;;;;;;;;;;;;;;;20.42;19.41;100613.09;5009058;28;20011;-89
2022/03/27 09:40:56;;;;;;;;;;;;;;;20.55;18.81;100600.06;5025129;28;20027;-87
2022/03/27 09:43:22;;;;;;;;;;;;;;;20.35;19.31;100607.09;5024470;28;19948;-89
2022/03/27 09:46:01;;;;;;;;;;;;;;;20.62;19.93;100606.00;5008396;28;20392;-86
2022/03/27 09:48:27;;;;;;;;;;;;;;;20.82;20.40;100602.53;5008157;28;19932;-86
2022/03/27 09:50:53;;;;;;;;;;;;;;;20.90;19.33;100595.91;5008867;28;19917;-85
2022/03/27 09:53:19;;;;;;;;;;;;;;;20.87;18.77;100589.81;5008640;28;19980;-89
2022/03/27 09:55:45;;;;;;;;;;;;;;;20.84;18.95;100587.25;5027830;28;19924;-88
2022/03/27 09:58:12;;;;;;;;;;;;;;;21.05;20.21;100572.00;5028598;28;19925;-87
2022/03/27 10:00:37;;;;;;;;;;;;;;;21.05;18.50;100590.78;5029064;28;19947;-89
2022/03/27 10:03:09;;;;;;;;;;;;;;;20.74;17.45;100593.03;5060968;28;19913;-88
2022/03/27 10:05:35;;;;;;;;;;;;;;;20.75;17.13;100580.47;5027745;28;20469;-89
2022/03/27 10:08:01;;;;;;;;;;;;;;;20.72;17.72;100581.47;5061285;28;19921;-87
2022/03/27 10:10:27;;;;;;;;;;;;;;;20.51;17.64;100583.25;5028549;28;19925;-86
2022/03/27 10:12:53;;;;;;;;;;;;;;;20.77;16.57;100569.69;5061055;28;19921;-87
2022/03/27 10:15:20;;;;;;;;;;;;;;;20.70;16.39;100572.63;5028457;28;19924;-86
2022/03/27 10:17:48;;;;;;;;;;;;;;;21.20;17.63;100581.19;5028302;28;20313;-87
2022/03/27 10:20:15;;;;;;;;;;;;;;;20.88;17.98;100584.38;5027729;28;19921;-87
2022/03/27 10:22:48;;;;;;;;;;;;;;;20.94;17.42;100583.22;5028208;28;19975;-86
2022/03/27 10:25:14;;;;;;;;;;;;;;;21.08;17.04;100579.91;5027777;28;20285;-85
2022/03/27 10:27:40;;;;;;;;;;;;;;;21.15;17.00;100575.13;5027400;28;19921;-86
2022/03/27 10:30:06;;;;;;;;;;;;;;;21.58;18.29;100566.03;5028664;28;19921;-86
2022/03/27 10:32:32;;;;;;;;;;;;;;;21.49;16.81;100563.78;5028245;28;20781;-86
2022/03/27 10:35:01;;;;;;;;;;;;;;;21.58;17.49;100554.41;5027828;28;19979;-86
2022/03/27 10:37:27;;;;;;;;;;;;;;;21.09;17.31;100560.22;5027708;28;19925;-85
2022/03/27 10:39:55;;;;;;;;;;;;;;;20.91;16.54;100551.16;5027573;28;19921;-86
2022/03/27 10:42:20;;;;;;;;;;;;;;;21.32;19.25;100552.91;5028009;28;19917;-86
2022/03/27 10:44:50;;;;;;;;;;;;;;;21.45;17.09;100549.59;5027790;28;19951;-85
2022/03/27 10:47:16;;;;;;;;;;;;;;;21.53;16.84;100546.56;5028172;28;19925;-84
2022/03/27 10:49:43;;;;;;;;;;;;;;;21.58;17.97;100536.50;5027741;28;19921;-86
2022/03/27 10:52:09;;;;;;;;;;;;;;;21.21;16.32;100548.03;5027328;28;20020;-86
2022/03/27 10:54:53;;;;;;;;;;;;;;;21.34;17.96;100540.31;5027282;28;19925;-83
2022/03/27 10:57:28;;;;;;;;;;;;;;;21.73;17.21;100539.41;5027496;28;19917;-83
2022/03/27 10:59:54;;;;;;;;;;;;;;;21.88;16.31;100537.81;5027779;28;19917;-85
2022/03/27 11:02:39;;;;;;;;;;;;;;;21.90;18.23;100519.78;5026705;28;19928;-83
2022/03/27 11:05:04;;;;;;;;;;;;;;;21.89;16.14;100524.28;5027951;28;19921;-84
2022/03/27 11:07:30;;;;;;;;;;;;;;;21.66;16.66;100514.66;5027061;28;19928;-83
2022/03/27 11:09:55;;;;;;;;;;;;;;;21.78;17.07;100514.06;5027570;28;19971;-84
2022/03/27 11:12:30;;;;;;;;;;;;;;;21.92;16.60;100521.47;5027479;28;19929;-85
2022/03/27 11:14:59;;;;;;;;;;;;;;;21.85;15.40;100517.31;5026204;28;20418;-86
2022/03/27 11:17:41;;;;;;;;;;;;;;;21.98;16.70;100507.72;5058966;28;19929;-84
2022/03/27 11:20:08;;;;;;;;;;;;;;;22.11;15.70;100501.75;5027579;28;19918;-84
2022/03/27 11:22:44;;;;;;;;;;;;;;;22.16;15.17;100491.63;5026816;28;19921;-85
2022/03/27 11:25:24;;;;;;;;;;;;;;;22.00;17.09;100502.28;5011335;28;20001;-87
2022/03/27 11:28:08;;;;;;;;;;;;;;;22.11;17.32;100493.69;5005407;28;20396;-86
2022/03/27 11:30:35;;;;;;;;;;;;;;;22.23;16.13;100495.75;5008129;28;19921;-86
2022/03/27 11:33:18;;;;;;;;;;;;;;;22.09;15.26;100500.94;5008880;28;20012;-86
2022/03/27 11:36:02;;;;;;;;;;;;;;;22.32;16.57;100497.09;5025138;28;20362;-84
2022/03/27 11:38:28;;;;;;;;;;;;;;;22.35;15.55;100491.56;5010102;28;20354;-84
2022/03/27 11:40:55;;;;;;;;;;;;;;;22.33;15.38;100494.34;5012454;28;19976;-83
2022/03/27 11:43:26;;;;;;;;;;;;;;;22.43;15.98;100483.13;5014561;28;19921;-85
2022/03/27 11:45:54;;;;;;;;;;;;;;;22.18;16.08;100484.34;5010994;28;19921;-83
2022/03/27 11:48:19;;;;;;;;;;;;;;;22.61;16.10;100484.84;5010680;28;19925;-82
2022/03/27 11:50:45;;;;;;;;;;;;;;;22.38;16.31;100480.66;5025934;28;20012;-82
2022/03/27 11:53:10;;;;;;;;;;;;;;;22.00;15.43;100456.63;5015670;28;20016;-85
2022/03/27 11:55:37;;;;;;;;;;;;;;;22.34;15.79;100476.41;5007968;28;19925;-83
2022/03/27 11:58:03;;;;;;;;;;;;;;;22.07;15.74;100475.97;5009677;28;19926;-85
2022/03/27 12:00:31;;;;;;;;;;;;;;;22.16;16.38;100470.13;5007674;28;20123;-83
2022/03/27 12:02:57;;;;;;;;;;;;;;;22.27;15.38;100458.81;5008180;28;20031;-83
2022/03/27 12:05:31;;;;;;;;;;;;;;;22.63;15.99;100463.25;5007822;28;19943;-85
2022/03/27 12:07:56;;;;;;;;;;;;;;;22.51;15.94;100460.28;5009461;28;19929;-84
2022/03/27 12:10:22;;;;;;;;;;;;;;;22.63;16.50;100458.75;5008314;28;20339;-84
2022/03/27 12:12:58;;;;;;;;;;;;;;;22.48;16.67;100448.81;5009506;28;20408;-85
2022/03/27 12:15:34;;;;;;;;;;;;;;;22.87;16.54;100445.81;4990968;28;19932;-86
2022/03/27 12:18:00;;;;;;;;;;;;;;;22.66;16.38;100439.78;5008802;28;20389;-84
2022/03/27 12:20:26;;;;;;;;;;;;;;;22.59;16.27;100454.50;5008951;28;19929;-84
2022/03/27 12:22:51;;;;;;;;;;;;;;;22.41;16.07;100444.72;5024860;28;20471;-83
2022/03/27 12:25:26;;;;;;;;;;;;;;;22.68;16.73;100432.50;5022936;28;20040;-84
2022/03/27 12:30:46;;;;;;;;;;;;;;;22.56;16.14;100437.66;5027508;28;20144;-83
2022/03/27 12:33:12;;;;;;;;;;;;;;;22.61;16.03;100427.53;5019181;28;19925;-85
2022/03/27 12:35:37;;;;;;;;;;;;;;;22.74;15.90;100423.22;5011559;28;20316;-83
2022/03/27 12:38:02;;;;;;;;;;;;;;;23.18;16.67;100429.84;5034478;28;19929;-85
2022/03/27 12:40:28;;;;;;;;;;;;;;;23.17;16.61;100422.69;5020845;28;19932;-87
2022/03/27 12:42:54;;;;;;;;;;;;;;;23.01;16.42;100422.66;5008299;28;19925;-85
2022/03/27 12:45:22;;;;;;;;;;;;;;;23.24;17.58;100411.50;5008861;28;19933;-85